Time;durP1;ratioP1;P1;durP2;ratioP2;P2;SDS_P1;SDS_P2;PMS_P1;PMS_P2;Temp;Humidity;BMP_temperature;BMP_pressure;BME280_temperature;BME280_humidity;BME280_pressure;Samples;Min_cycle;Max_cycle;Signal;HPM_P1;HPM_P2
2023/12/11 00:00:39;;;;;;;11.73;3.53;;;;;;;;;;5061351;28;40464;-81
2023/12/11 00:03:08;;;;;;;8.85;2.88;;;;;;;;;;5064209;28;41782;-76
2023/12/11 00:05:38;;;;;;;8.70;3.22;;;;;;;;;;5059591;28;42254;-76
2023/12/11 00:08:06;;;;;;;11.68;3.58;;;;;;;;;;5060647;28;41140;-76
2023/12/11 00:10:34;;;;;;;10.15;3.03;;;;;;;;;;5060331;28;43105;-74
2023/12/11 00:13:04;;;;;;;9.80;2.60;;;;;;;;;;5060608;28;40549;-76
2023/12/11 00:15:32;;;;;;;10.80;2.97;;;;;;;;;;5059292;28;41227;-77
2023/12/11 00:18:00;;;;;;;11.20;3.85;;;;;;;;;;5060470;28;41478;-76
2023/12/11 00:20:28;;;;;;;13.55;3.55;;;;;;;;;;5063975;28;40618;-78
2023/12/11 00:22:56;;;;;;;9.77;3.08;;;;;;;;;;5061189;28;41254;-79
2023/12/11 00:25:25;;;;;;;12.93;3.65;;;;;;;;;;5059197;28;42327;-81
2023/12/11 00:27:53;;;;;;;16.67;4.20;;;;;;;;;;5057431;28;40054;-78
2023/12/11 00:30:22;;;;;;;9.90;3.05;;;;;;;;;;5063138;28;42268;-79
2023/12/11 00:32:51;;;;;;;9.52;3.10;;;;;;;;;;5054064;28;39997;-77
2023/12/11 00:35:19;;;;;;;12.10;3.55;;;;;;;;;;5061172;28;41170;-79
2023/12/11 00:37:47;;;;;;;15.43;4.22;;;;;;;;;;5062754;28;41742;-78
2023/12/11 00:40:15;;;;;;;13.15;3.38;;;;;;;;;;5062216;28;39913;-76
2023/12/11 00:42:43;;;;;;;14.23;3.58;;;;;;;;;;5064193;28;41275;-76
2023/12/11 00:45:12;;;;;;;13.32;3.65;;;;;;;;;;5061285;28;41887;-76
2023/12/11 00:47:41;;;;;;;16.70;3.85;;;;;;;;;;5061115;28;40816;-76
2023/12/11 00:50:09;;;;;;;12.25;3.47;;;;;;;;;;5063632;28;41596;-76
2023/12/11 00:52:38;;;;;;;14.48;3.55;;;;;;;;;;5067351;28;41360;-76
2023/12/11 00:55:06;;;;;;;20.10;4.22;;;;;;;;;;5064576;28;41278;-76
2023/12/11 00:57:35;;;;;;;20.35;4.35;;;;;;;;;;5067332;28;41768;-76
2023/12/11 01:00:03;;;;;;;12.45;3.80;;;;;;;;;;5065883;28;40624;-76
2023/12/11 01:02:32;;;;;;;11.93;3.40;;;;;;;;;;5058567;28;41638;-77
2023/12/11 01:05:02;;;;;;;15.48;4.30;;;;;;;;;;5063925;28;42168;-76
2023/12/11 01:07:30;;;;;;;14.82;4.13;;;;;;;;;;5046535;28;39870;-76
2023/12/11 01:09:59;;;;;;;19.13;4.43;;;;;;;;;;5064907;28;41558;-76
2023/12/11 01:12:27;;;;;;;14.07;4.22;;;;;;;;;;5062808;28;44061;-76
2023/12/11 01:14:55;;;;;;;19.83;4.95;;;;;;;;;;5066972;28;41234;-76
2023/12/11 01:17:23;;;;;;;19.67;4.38;;;;;;;;;;5071720;28;41905;-76
2023/12/11 01:20:09;;;;;;;16.42;4.00;;;;;;;;;;5067352;28;40398;-76
2023/12/11 01:22:37;;;;;;;15.10;3.92;;;;;;;;;;5052368;28;41748;-76
2023/12/11 01:25:08;;;;;;;15.20;3.53;;;;;;;;;;5059968;28;41832;-76
2023/12/11 01:27:36;;;;;;;13.65;3.72;;;;;;;;;;5067811;28;40245;-76
2023/12/11 01:30:05;;;;;;;11.13;3.28;;;;;;;;;;5070271;28;41392;-77
2023/12/11 01:32:33;;;;;;;11.00;3.60;;;;;;;;;;5050779;28;40734;-76
2023/12/11 01:35:01;;;;;;;13.30;3.53;;;;;;;;;;5071165;28;40523;-77
2023/12/11 01:37:31;;;;;;;15.02;4.43;;;;;;;;;;5070600;28;42054;-76
2023/12/11 01:39:59;;;;;;;10.77;3.50;;;;;;;;;;5069819;28;40958;-76
2023/12/11 01:42:27;;;;;;;11.38;3.30;;;;;;;;;;5070910;28;41403;-76
2023/12/11 01:44:56;;;;;;;12.65;3.55;;;;;;;;;;5069396;28;42596;-76
2023/12/11 01:47:24;;;;;;;12.40;2.65;;;;;;;;;;5070574;28;41068;-76
2023/12/11 01:49:52;;;;;;;10.52;3.33;;;;;;;;;;5070788;28;42101;-77
2023/12/11 01:52:20;;;;;;;12.68;3.78;;;;;;;;;;5066674;28;42699;-76
2023/12/11 01:54:49;;;;;;;13.50;4.15;;;;;;;;;;5061057;28;41353;-76
2023/12/11 01:57:17;;;;;;;12.70;3.85;;;;;;;;;;5069745;28;41512;-76
2023/12/11 01:59:45;;;;;;;11.68;3.85;;;;;;;;;;5069746;28;40560;-77
2023/12/11 02:02:16;;;;;;;16.65;4.38;;;;;;;;;;5055543;28;40150;-76
2023/12/11 02:04:44;;;;;;;14.02;3.88;;;;;;;;;;5067823;28;42753;-76
2023/12/11 02:07:13;;;;;;;13.20;3.67;;;;;;;;;;5063244;28;40925;-76
2023/12/11 02:09:41;;;;;;;13.57;3.40;;;;;;;;;;5049779;28;41568;-76
2023/12/11 02:12:10;;;;;;;8.75;3.47;;;;;;;;;;5062380;28;41979;-76
2023/12/11 02:14:38;;;;;;;10.15;3.47;;;;;;;;;;5069024;28;41051;-76
2023/12/11 02:17:09;;;;;;;14.15;4.03;;;;;;;;;;5059623;28;41675;-76
2023/12/11 02:19:37;;;;;;;14.23;3.67;;;;;;;;;;5068602;28;42045;-76
2023/12/11 02:22:05;;;;;;;14.45;4.18;;;;;;;;;;5057802;28;41810;-76
2023/12/11 02:24:34;;;;;;;12.02;3.47;;;;;;;;;;5067832;28;42141;-76
2023/12/11 02:27:03;;;;;;;14.45;3.97;;;;;;;;;;5055924;28;40088;-76
2023/12/11 02:29:31;;;;;;;12.90;3.53;;;;;;;;;;5063518;28;41760;-77
2023/12/11 02:31:59;;;;;;;11.93;3.33;;;;;;;;;;5061978;28;42213;-76
2023/12/11 02:34:27;;;;;;;15.15;4.00;;;;;;;;;;5063694;28;43069;-76
2023/12/11 02:36:56;;;;;;;12.50;3.53;;;;;;;;;;5057190;28;42303;-76
2023/12/11 02:39:24;;;;;;;14.13;3.72;;;;;;;;;;5071707;28;42173;-76
2023/12/11 02:41:52;;;;;;;11.45;3.78;;;;;;;;;;5077985;28;41638;-76
2023/12/11 02:44:21;;;;;;;10.75;3.35;;;;;;;;;;5068017;28;42192;-76
2023/12/11 02:46:49;;;;;;;16.98;4.13;;;;;;;;;;5059668;28;42083;-76
2023/12/11 02:49:17;;;;;;;11.05;3.33;;;;;;;;;;5063774;28;42003;-76
2023/12/11 02:51:46;;;;;;;15.15;4.28;;;;;;;;;;5068593;28;43307;-76
2023/12/11 02:54:14;;;;;;;13.23;3.72;;;;;;;;;;5048245;28;39827;-77
2023/12/11 02:56:43;;;;;;;13.73;3.88;;;;;;;;;;5060608;28;41641;-76
2023/12/11 02:59:11;;;;;;;12.32;3.80;;;;;;;;;;5062973;28;42576;-76
2023/12/11 03:01:40;;;;;;;15.98;4.43;;;;;;;;;;5072965;28;41049;-76
2023/12/11 03:04:09;;;;;;;13.48;3.90;;;;;;;;;;5077174;28;42216;-76
2023/12/11 03:06:37;;;;;;;13.18;3.97;;;;;;;;;;5065947;28;40332;-76
2023/12/11 03:09:05;;;;;;;17.27;4.82;;;;;;;;;;5067656;28;41611;-76
2023/12/11 03:11:33;;;;;;;11.88;3.47;;;;;;;;;;5068753;28;41877;-76
2023/12/11 03:14:01;;;;;;;11.43;3.50;;;;;;;;;;5068489;28;40862;-76
2023/12/11 03:16:30;;;;;;;15.43;4.00;;;;;;;;;;5068871;28;41645;-76
2023/12/11 03:19:00;;;;;;;14.77;3.63;;;;;;;;;;5080893;28;42864;-76
2023/12/11 03:21:28;;;;;;;14.45;3.83;;;;;;;;;;5068426;28;40350;-76
2023/12/11 03:23:56;;;;;;;11.30;3.65;;;;;;;;;;5057111;28;41579;-76
2023/12/11 03:26:24;;;;;;;14.27;3.85;;;;;;;;;;5072800;28;40870;-76
2023/12/11 03:28:52;;;;;;;13.77;3.67;;;;;;;;;;5077669;28;41449;-76
2023/12/11 03:31:20;;;;;;;15.50;3.53;;;;;;;;;;5048736;28;40409;-76
2023/12/11 03:33:48;;;;;;;13.55;4.05;;;;;;;;;;5058960;28;38781;-76
2023/12/11 03:36:18;;;;;;;13.63;4.38;;;;;;;;;;5072172;28;42227;-76
2023/12/11 03:38:46;;;;;;;13.25;3.55;;;;;;;;;;5067714;28;42167;-76
2023/12/11 03:41:14;;;;;;;12.52;3.33;;;;;;;;;;5068237;28;40036;-77
2023/12/11 03:43:42;;;;;;;14.25;4.40;;;;;;;;;;5077922;28;41340;-77
2023/12/11 03:46:10;;;;;;;11.65;3.40;;;;;;;;;;5059253;28;42003;-76
2023/12/11 03:48:38;;;;;;;9.98;3.63;;;;;;;;;;5067934;28;42596;-76
2023/12/11 03:51:06;;;;;;;10.13;3.10;;;;;;;;;;5067033;28;41600;-77
2023/12/11 03:53:36;;;;;;;12.18;3.47;;;;;;;;;;5067436;28;40000;-76
2023/12/11 03:56:04;;;;;;;10.77;2.95;;;;;;;;;;5068083;28;42684;-76
2023/12/11 03:58:32;;;;;;;11.07;3.10;;;;;;;;;;5053807;28;42961;-77
2023/12/11 04:01:00;;;;;;;10.43;2.95;;;;;;;;;;5080595;28;41289;-77
2023/12/11 04:03:28;;;;;;;11.65;3.17;;;;;;;;;;5061121;28;42882;-76
2023/12/11 04:05:56;;;;;;;9.48;2.67;;;;;;;;;;5053190;28;42107;-77
2023/12/11 04:08:25;;;;;;;11.75;3.65;;;;;;;;;;5062208;28;38817;-77
2023/12/11 04:10:54;;;;;;;9.38;3.13;;;;;;;;;;5073513;28;41802;-76
2023/12/11 04:13:22;;;;;;;9.27;2.75;;;;;;;;;;5075893;28;40976;-77
2023/12/11 04:15:50;;;;;;;10.35;3.05;;;;;;;;;;5081790;28;41586;-76
2023/12/11 04:18:18;;;;;;;10.50;3.17;;;;;;;;;;5067674;28;42188;-76
2023/12/11 04:20:46;;;;;;;8.90;2.50;;;;;;;;;;5066032;28;40448;-76
2023/12/11 04:23:15;;;;;;;10.25;3.53;;;;;;;;;;5064916;28;41821;-77
2023/12/11 04:25:42;;;;;;;10.07;2.92;;;;;;;;;;5068555;28;42063;-77
2023/12/11 04:28:12;;;;;;;8.35;2.75;;;;;;;;;;5067546;28;40032;-77
2023/12/11 04:30:40;;;;;;;9.43;2.90;;;;;;;;;;5077131;28;41377;-76
2023/12/11 04:33:08;;;;;;;9.73;2.88;;;;;;;;;;5058301;28;40424;-76
2023/12/11 04:35:36;;;;;;;12.40;3.22;;;;;;;;;;5067886;28;42566;-77
2023/12/11 04:38:04;;;;;;;11.85;3.35;;;;;;;;;;5049652;28;41237;-76
2023/12/11 04:40:32;;;;;;;7.50;2.28;;;;;;;;;;5052860;28;40404;-76
2023/12/11 04:43:00;;;;;;;11.10;3.08;;;;;;;;;;5067693;28;41537;-77
2023/12/11 04:45:30;;;;;;;8.32;2.63;;;;;;;;;;5067672;28;42388;-76
2023/12/11 04:47:58;;;;;;;9.18;2.83;;;;;;;;;;5066729;28;40611;-77
2023/12/11 04:50:26;;;;;;;8.48;3.00;;;;;;;;;;5068732;28;42013;-77
2023/12/11 04:52:54;;;;;;;8.88;2.80;;;;;;;;;;5047732;28;38581;-77
2023/12/11 04:55:23;;;;;;;15.55;3.45;;;;;;;;;;5070860;28;42518;-77
2023/12/11 04:57:51;;;;;;;8.07;2.30;;;;;;;;;;5070721;28;41993;-76
2023/12/11 05:00:19;;;;;;;15.55;3.25;;;;;;;;;;5071500;28;40894;-77
2023/12/11 05:02:49;;;;;;;8.00;2.63;;;;;;;;;;5070356;28;42122;-76
2023/12/11 05:05:17;;;;;;;10.55;2.80;;;;;;;;;;5070605;28;42109;-76
2023/12/11 05:07:45;;;;;;;8.40;2.10;;;;;;;;;;5070608;28;40525;-76
2023/12/11 05:10:13;;;;;;;12.20;3.30;;;;;;;;;;5062045;28;41434;-77
2023/12/11 05:12:41;;;;;;;6.03;2.08;;;;;;;;;;5065187;28;42007;-76
2023/12/11 05:15:09;;;;;;;9.35;2.88;;;;;;;;;;5064293;28;41350;-76
2023/12/11 05:17:37;;;;;;;12.60;3.60;;;;;;;;;;5063851;28;42119;-76
2023/12/11 05:20:08;;;;;;;11.43;3.83;;;;;;;;;;5070331;28;41458;-76
2023/12/11 05:22:36;;;;;;;10.90;3.13;;;;;;;;;;5062543;28;42586;-76
2023/12/11 05:25:05;;;;;;;8.73;2.78;;;;;;;;;;5064973;28;42860;-76
2023/12/11 05:27:33;;;;;;;9.25;2.45;;;;;;;;;;5063711;28;40008;-76
2023/12/11 05:30:01;;;;;;;12.85;3.05;;;;;;;;;;5050012;28;42364;-76
2023/12/11 05:32:29;;;;;;;6.93;2.25;;;;;;;;;;5065647;28;42901;-76
2023/12/11 05:34:57;;;;;;;10.32;2.53;;;;;;;;;;5061744;28;40280;-77
2023/12/11 05:37:27;;;;;;;10.38;2.63;;;;;;;;;;5067441;28;42075;-76
2023/12/11 05:39:55;;;;;;;11.95;3.20;;;;;;;;;;5070008;28;42007;-77
2023/12/11 05:42:43;;;;;;;12.20;2.63;;;;;;;;;;5066751;28;41246;-76
2023/12/11 05:45:11;;;;;;;11.50;2.97;;;;;;;;;;5068039;28;41630;-77
2023/12/11 05:47:39;;;;;;;8.50;2.38;;;;;;;;;;5068295;28;40336;-76
2023/12/11 05:50:08;;;;;;;11.32;2.88;;;;;;;;;;5070568;28;42340;-76
2023/12/11 05:52:37;;;;;;;10.95;3.03;;;;;;;;;;5064728;28;42100;-76
2023/12/11 05:55:05;;;;;;;12.25;3.95;;;;;;;;;;5051807;28;39980;-76
2023/12/11 05:57:34;;;;;;;10.43;3.17;;;;;;;;;;5070006;28;42320;-76
2023/12/11 06:00:02;;;;;;;14.05;3.30;;;;;;;;;;5069966;28;40644;-77
2023/12/11 06:02:32;;;;;;;10.95;2.72;;;;;;;;;;5068413;28;42310;-76
2023/12/11 06:05:00;;;;;;;7.20;2.25;;;;;;;;;;5068876;28;42159;-76
2023/12/11 06:07:28;;;;;;;9.02;2.45;;;;;;;;;;5070450;28;40270;-76
2023/12/11 06:09:57;;;;;;;9.95;2.50;;;;;;;;;;5066893;28;42404;-76
2023/12/11 06:12:25;;;;;;;12.88;3.03;;;;;;;;;;5069442;28;42149;-76
2023/12/11 06:14:54;;;;;;;14.07;3.85;;;;;;;;;;5068716;28;40532;-76
2023/12/11 06:17:22;;;;;;;10.00;2.60;;;;;;;;;;5061852;28;42167;-76
2023/12/11 06:19:50;;;;;;;13.40;2.42;;;;;;;;;;5067172;28;42127;-77
2023/12/11 06:22:18;;;;;;;12.57;3.05;;;;;;;;;;5060872;28;41884;-77
2023/12/11 06:24:47;;;;;;;8.57;2.90;;;;;;;;;;5070016;28;42757;-77
2023/12/11 06:27:16;;;;;;;10.43;2.72;;;;;;;;;;5069190;28;39670;-77
2023/12/11 06:29:44;;;;;;;9.85;2.90;;;;;;;;;;5069568;28;41831;-77
2023/12/11 06:32:12;;;;;;;7.43;2.88;;;;;;;;;;5069644;28;41751;-76
2023/12/11 06:34:40;;;;;;;19.23;3.92;;;;;;;;;;5069058;28;40061;-77
2023/12/11 06:37:09;;;;;;;9.50;2.65;;;;;;;;;;5069535;28;42567;-76
2023/12/11 06:39:37;;;;;;;6.90;2.33;;;;;;;;;;5070099;28;41741;-76
2023/12/11 06:42:05;;;;;;;9.90;2.83;;;;;;;;;;5069327;28;41106;-77
2023/12/11 06:44:35;;;;;;;10.48;2.67;;;;;;;;;;5070086;28;41316;-76
2023/12/11 06:47:04;;;;;;;9.40;2.95;;;;;;;;;;5068587;28;41107;-76
2023/12/11 06:49:32;;;;;;;8.35;2.75;;;;;;;;;;5054976;28;41751;-77
2023/12/11 06:52:00;;;;;;;12.55;3.15;;;;;;;;;;5068651;28;43097;-77
2023/12/11 06:54:28;;;;;;;7.82;2.20;;;;;;;;;;5057664;28;42333;-77
2023/12/11 06:56:56;;;;;;;9.43;2.63;;;;;;;;;;5069187;28;42057;-76
2023/12/11 06:59:29;;;;;;;16.20;2.97;;;;;;;;;;5065929;28;42253;-76
2023/12/11 07:01:58;;;;;;;8.43;2.60;;;;;;;;;;5066377;28;40463;-76
2023/12/11 07:04:27;;;;;;;8.85;2.95;;;;;;;;;;5067520;28;42220;-77
2023/12/11 07:06:55;;;;;;;10.32;3.03;;;;;;;;;;5067277;28;40331;-76
2023/12/11 07:09:24;;;;;;;8.05;2.58;;;;;;;;;;5067775;28;42613;-76
2023/12/11 07:11:52;;;;;;;11.40;3.45;;;;;;;;;;5047716;28;41870;-76
2023/12/11 07:14:23;;;;;;;8.50;2.90;;;;;;;;;;5068431;28;41127;-77
2023/12/11 07:16:51;;;;;;;8.50;3.03;;;;;;;;;;5068248;28;42440;-77
2023/12/11 07:19:21;;;;;;;9.07;2.85;;;;;;;;;;5069007;28;43074;-76
2023/12/11 07:21:49;;;;;;;9.38;2.60;;;;;;;;;;5068219;28;39874;-77
2023/12/11 07:24:17;;;;;;;13.70;2.47;;;;;;;;;;5066535;28;42101;-76
2023/12/11 07:26:45;;;;;;;11.77;2.83;;;;;;;;;;5064677;28;40036;-76
2023/12/11 07:29:13;;;;;;;12.38;3.00;;;;;;;;;;5064339;28;41653;-76
2023/12/11 07:31:42;;;;;;;10.52;2.65;;;;;;;;;;5063518;28;42591;-77
2023/12/11 07:34:10;;;;;;;8.25;2.70;;;;;;;;;;5060446;28;40337;-76
2023/12/11 07:36:40;;;;;;;12.35;3.03;;;;;;;;;;5067138;28;43147;-76
2023/12/11 07:39:09;;;;;;;7.40;2.97;;;;;;;;;;5065231;28;41562;-76
2023/12/11 07:41:37;;;;;;;12.82;3.33;;;;;;;;;;5067183;28;40375;-77
2023/12/11 07:44:05;;;;;;;10.38;3.00;;;;;;;;;;5061845;28;41646;-76
2023/12/11 07:46:33;;;;;;;9.90;2.95;;;;;;;;;;5065032;28;44127;-76
2023/12/11 07:49:01;;;;;;;9.85;2.88;;;;;;;;;;5045201;28;40992;-76
2023/12/11 07:51:29;;;;;;;13.00;2.85;;;;;;;;;;5061054;28;42758;-77
2023/12/11 07:53:59;;;;;;;8.85;2.67;;;;;;;;;;5043355;28;38897;-77
2023/12/11 07:56:29;;;;;;;11.10;2.85;;;;;;;;;;5066887;28;41893;-77
2023/12/11 07:58:57;;;;;;;10.32;3.03;;;;;;;;;;5067822;28;42193;-76
2023/12/11 08:01:27;;;;;;;15.18;3.75;;;;;;;;;;5067195;28;39834;-76
2023/12/11 08:03:57;;;;;;;9.07;2.75;;;;;;;;;;5068505;28;41851;-76
2023/12/11 08:06:25;;;;;;;10.55;2.88;;;;;;;;;;5061516;28;42756;-77
2023/12/11 08:08:55;;;;;;;8.52;2.60;;;;;;;;;;5068084;28;42067;-76
2023/12/11 08:11:25;;;;;;;6.68;2.45;;;;;;;;;;5065387;28;42772;-75
2023/12/11 08:13:53;;;;;;;6.35;2.08;;;;;;;;;;5067398;28;41368;-77
2023/12/11 08:16:22;;;;;;;6.75;2.15;;;;;;;;;;5064701;28;41654;-77
2023/12/11 08:18:50;;;;;;;8.40;2.00;;;;;;;;;;5048134;28;42793;-77
2023/12/11 08:21:18;;;;;;;10.30;2.10;;;;;;;;;;5065743;28;40185;-77
2023/12/11 08:23:47;;;;;;;7.47;2.28;;;;;;;;;;5068283;28;42681;-76
2023/12/11 08:26:16;;;;;;;6.93;1.98;;;;;;;;;;5047927;28;41847;-76
2023/12/11 08:28:46;;;;;;;7.53;1.80;;;;;;;;;;5067826;28;39781;-77
2023/12/11 08:31:14;;;;;;;7.00;2.00;;;;;;;;;;5065580;28;41920;-77
2023/12/11 08:33:42;;;;;;;8.60;2.10;;;;;;;;;;5060034;28;41729;-77
2023/12/11 08:36:10;;;;;;;6.45;1.77;;;;;;;;;;5064065;28;41989;-80
2023/12/11 08:38:38;;;;;;;8.05;2.00;;;;;;;;;;5068108;28;42865;-76
2023/12/11 08:41:06;;;;;;;7.05;1.92;;;;;;;;;;5065985;28;40553;-74
2023/12/11 08:43:35;;;;;;;6.25;1.55;;;;;;;;;;5066810;28;41230;-73
2023/12/11 08:46:04;;;;;;;6.93;1.95;;;;;;;;;;5066881;28;41657;-73
2023/12/11 08:48:32;;;;;;;7.93;2.05;;;;;;;;;;5056330;28;40360;-72
2023/12/11 08:51:01;;;;;;;12.80;2.03;;;;;;;;;;5059788;28;43120;-73
2023/12/11 08:53:29;;;;;;;4.10;1.73;;;;;;;;;;5066997;28;33097;-72
2023/12/11 08:55:57;;;;;;;6.65;1.67;;;;;;;;;;5052709;28;41223;-73
2023/12/11 08:58:25;;;;;;;7.78;1.80;;;;;;;;;;5067328;28;42082;-72
2023/12/11 09:00:53;;;;;;;5.70;1.80;;;;;;;;;;5056321;28;40211;-72
2023/12/11 09:03:22;;;;;;;7.25;1.77;;;;;;;;;;5061715;28;41510;-72
2023/12/11 09:05:50;;;;;;;5.05;1.30;;;;;;;;;;5066928;28;42207;-74
2023/12/11 09:08:22;;;;;;;6.57;1.63;;;;;;;;;;5058633;28;40967;-72
2023/12/11 09:10:50;;;;;;;4.90;1.35;;;;;;;;;;5064224;28;42639;-72
2023/12/11 09:13:18;;;;;;;8.02;2.13;;;;;;;;;;5063312;28;43141;-71
2023/12/11 09:15:47;;;;;;;11.63;2.30;;;;;;;;;;5066429;28;41848;-72
2023/12/11 09:18:15;;;;;;;7.15;2.08;;;;;;;;;;5066985;28;42176;-71
2023/12/11 09:20:44;;;;;;;7.63;1.83;;;;;;;;;;5061202;28;40340;-74
2023/12/11 09:23:13;;;;;;;4.65;1.92;;;;;;;;;;5040884;28;40303;-75
2023/12/11 09:25:41;;;;;;;6.18;1.73;;;;;;;;;;5066034;28;43346;-69
2023/12/11 09:28:09;;;;;;;7.97;2.00;;;;;;;;;;5064758;28;39881;-74
2023/12/11 09:30:37;;;;;;;4.70;1.42;;;;;;;;;;5054565;28;41369;-70
2023/12/11 09:33:05;;;;;;;6.13;1.85;;;;;;;;;;5051484;28;41977;-69
2023/12/11 09:35:35;;;;;;;7.50;1.73;;;;;;;;;;5060366;28;39959;-69
2023/12/11 09:38:04;;;;;;;6.90;1.63;;;;;;;;;;5064651;28;42892;-68
2023/12/11 09:40:32;;;;;;;7.50;1.90;;;;;;;;;;5065328;28;40007;-69
2023/12/11 09:43:00;;;;;;;10.18;1.77;;;;;;;;;;5060401;28;41534;-69
2023/12/11 09:45:29;;;;;;;6.25;1.88;;;;;;;;;;5068119;28;42171;-69
2023/12/11 09:47:57;;;;;;;6.43;1.55;;;;;;;;;;5061738;28;42007;-70
2023/12/11 09:50:39;;;;;;;6.15;1.50;;;;;;;;;;5066443;28;41605;-73
2023/12/11 09:53:09;;;;;;;5.03;1.33;;;;;;;;;;5063980;28;42206;-73
2023/12/11 09:55:37;;;;;;;5.97;2.00;;;;;;;;;;5069149;28;41100;-73
2023/12/11 09:58:05;;;;;;;5.78;1.92;;;;;;;;;;5065562;28;41446;-73
2023/12/11 10:00:33;;;;;;;8.35;1.95;;;;;;;;;;5067204;28;40472;-74
2023/12/11 10:03:05;;;;;;;6.80;1.73;;;;;;;;;;5065959;28;42188;-74
2023/12/11 10:05:35;;;;;;;6.18;1.65;;;;;;;;;;5048490;28;40605;-73
2023/12/11 10:08:04;;;;;;;4.50;1.40;;;;;;;;;;5065966;28;40203;-73
2023/12/11 10:10:37;;;;;;;4.75;1.50;;;;;;;;;;5067194;28;42618;-69
2023/12/11 10:13:05;;;;;;;4.40;1.30;;;;;;;;;;5067507;28;43696;-68
2023/12/11 10:15:34;;;;;;;7.78;1.90;;;;;;;;;;5065908;28;41401;-72
2023/12/11 10:18:12;;;;;;;6.95;1.85;;;;;;;;;;5064054;28;41588;-72
2023/12/11 10:20:41;;;;;;;5.90;1.67;;;;;;;;;;5059585;28;42219;-71
2023/12/11 10:23:14;;;;;;;6.28;1.60;;;;;;;;;;5053672;28;40945;-72
2023/12/11 10:25:45;;;;;;;9.40;2.00;;;;;;;;;;5068104;28;41553;-73
2023/12/11 10:28:13;;;;;;;6.28;2.03;;;;;;;;;;5066597;28;40306;-72
2023/12/11 10:30:51;;;;;;;5.18;1.40;;;;;;;;;;5068153;28;41677;-72
2023/12/11 10:33:19;;;;;;;5.15;1.67;;;;;;;;;;5055688;28;42244;-73
2023/12/11 10:35:48;;;;;;;6.10;1.75;;;;;;;;;;5058643;28;39841;-72
2023/12/11 10:38:22;;;;;;;4.15;1.40;;;;;;;;;;5066495;28;41484;-72
2023/12/11 10:40:52;;;;;;;4.78;1.55;;;;;;;;;;5066712;28;42814;-72
2023/12/11 10:43:20;;;;;;;11.50;2.50;;;;;;;;;;5065270;28;40938;-72
2023/12/11 10:45:48;;;;;;;5.45;1.95;;;;;;;;;;5061589;28;41962;-71
2023/12/11 10:48:20;;;;;;;6.43;1.75;;;;;;;;;;5063649;28;40985;-72
2023/12/11 10:50:49;;;;;;;4.93;1.52;;;;;;;;;;5061975;28;43358;-69
2023/12/11 10:53:18;;;;;;;5.28;1.58;;;;;;;;;;5058755;28;42096;-69
2023/12/11 10:55:46;;;;;;;6.90;1.48;;;;;;;;;;5066826;28;39981;-71
2023/12/11 10:58:16;;;;;;;5.75;2.03;;;;;;;;;;5068432;28;42113;-72
2023/12/11 11:00:45;;;;;;;6.50;2.10;;;;;;;;;;5062776;28;42685;-70
2023/12/11 11:03:13;;;;;;;9.07;2.10;;;;;;;;;;5051654;28;40386;-74
2023/12/11 11:05:41;;;;;;;11.73;2.17;;;;;;;;;;5065356;28;43220;-78
2023/12/11 11:08:12;;;;;;;7.32;2.28;;;;;;;;;;5067084;28;20257;-76
2023/12/11 11:10:40;;;;;;;12.50;1.85;;;;;;;;;;5065565;28;41463;-77
2023/12/11 11:13:09;;;;;;;10.07;2.50;;;;;;;;;;5059916;28;42070;-77
2023/12/11 11:15:38;;;;;;;8.07;2.55;;;;;;;;;;5062634;28;39876;-76
2023/12/11 11:18:07;;;;;;;4.55;1.80;;;;;;;;;;5053976;28;41604;-76
2023/12/11 11:20:35;;;;;;;8.35;1.83;;;;;;;;;;5067109;28;42217;-74
2023/12/11 11:23:21;;;;;;;8.82;2.20;;;;;;;;;;5063093;28;40017;-74
2023/12/11 11:25:51;;;;;;;9.68;2.38;;;;;;;;;;5064847;28;42035;-75
2023/12/11 11:28:41;;;;;;;7.43;2.28;;;;;;;;;;5061660;28;40798;-75
2023/12/11 11:31:12;;;;;;;16.05;2.78;;;;;;;;;;5059487;28;41191;-74
2023/12/11 11:33:43;;;;;;;13.98;3.72;;;;;;;;;;5059846;28;42438;-75
2023/12/11 11:36:11;;;;;;;11.05;2.80;;;;;;;;;;5059231;28;40282;-75
2023/12/11 11:38:51;;;;;;;19.15;3.10;;;;;;;;;;5058413;28;41026;-76
2023/12/11 11:41:23;;;;;;;14.93;2.75;;;;;;;;;;5063620;28;42783;-73
2023/12/11 11:43:58;;;;;;;17.60;2.50;;;;;;;;;;5060199;28;40169;-77
2023/12/11 11:46:27;;;;;;;13.85;2.83;;;;;;;;;;5057612;28;42084;-74
2023/12/11 11:48:55;;;;;;;7.72;1.95;;;;;;;;;;5065054;28;43295;-73
2023/12/11 11:51:23;;;;;;;31.10;4.00;;;;;;;;;;5059127;28;42480;-72
2023/12/11 11:53:52;;;;;;;20.63;3.45;;;;;;;;;;5063238;28;42135;-73
2023/12/11 11:56:20;;;;;;;22.08;4.38;;;;;;;;;;5062277;28;41041;-78
2023/12/11 11:58:48;;;;;;;21.88;4.20;;;;;;;;;;5045739;28;41518;-76
2023/12/11 12:01:16;;;;;;;15.40;2.95;;;;;;;;;;5062410;28;40958;-76
2023/12/11 12:03:46;;;;;;;15.77;2.80;;;;;;;;;;5063004;28;40360;-78
2023/12/11 12:06:14;;;;;;;11.68;2.55;;;;;;;;;;5063742;28;40483;-77
2023/12/11 12:08:45;;;;;;;16.33;3.25;;;;;;;;;;5062408;28;41761;-75
2023/12/11 12:11:15;;;;;;;12.38;3.17;;;;;;;;;;5062060;28;41477;-72
2023/12/11 12:13:43;;;;;;;14.05;2.38;;;;;;;;;;5043690;28;41505;-76
2023/12/11 12:16:11;;;;;;;14.93;3.45;;;;;;;;;;5059704;28;41272;-74
2023/12/11 12:18:50;;;;;;;16.77;3.47;;;;;;;;;;5038609;28;40594;-73
2023/12/11 12:21:18;;;;;;;10.05;2.10;;;;;;;;;;5062175;28;44267;-75
2023/12/11 12:23:46;;;;;;;13.05;3.00;;;;;;;;;;5064122;28;40931;-73
2023/12/11 12:26:14;;;;;;;13.30;2.95;;;;;;;;;;5061232;28;41497;-70
2023/12/11 12:28:42;;;;;;;22.17;3.67;;;;;;;;;;5059689;28;41912;-71
2023/12/11 12:31:10;;;;;;;17.98;2.42;;;;;;;;;;5062497;28;41025;-72
2023/12/11 12:33:38;;;;;;;16.98;3.17;;;;;;;;;;5063557;28;41654;-71
2023/12/11 12:36:07;;;;;;;9.52;1.80;;;;;;;;;;5063249;28;40659;-71
2023/12/11 12:38:35;;;;;;;13.98;2.72;;;;;;;;;;5062137;28;42148;-71
2023/12/11 12:41:04;;;;;;;10.80;2.25;;;;;;;;;;5061414;28;42853;-72
2023/12/11 12:43:32;;;;;;;15.00;3.10;;;;;;;;;;5064006;28;41752;-72
2023/12/11 12:46:00;;;;;;;11.50;2.88;;;;;;;;;;5062173;28;41645;-71
2023/12/11 12:48:28;;;;;;;17.58;3.00;;;;;;;;;;5064122;28;42172;-71
2023/12/11 12:51:04;;;;;;;10.10;2.60;;;;;;;;;;5063998;28;40312;-71
2023/12/11 12:53:33;;;;;;;9.65;2.80;;;;;;;;;;5061419;28;41589;-69
2023/12/11 12:56:01;;;;;;;8.70;1.95;;;;;;;;;;5060752;28;41836;-71
2023/12/11 12:58:29;;;;;;;15.23;2.83;;;;;;;;;;5064278;28;41328;-71
2023/12/11 13:00:57;;;;;;;13.20;2.58;;;;;;;;;;5058936;28;41800;-71
2023/12/11 13:03:26;;;;;;;11.40;2.25;;;;;;;;;;5057692;28;40277;-71
2023/12/11 13:05:57;;;;;;;9.75;2.20;;;;;;;;;;5061025;28;41890;-70
2023/12/11 13:08:26;;;;;;;12.00;2.85;;;;;;;;;;5054557;28;41416;-70
2023/12/11 13:10:55;;;;;;;9.23;2.08;;;;;;;;;;5057620;28;40617;-72
2023/12/11 13:13:25;;;;;;;9.95;2.50;;;;;;;;;;5066312;28;42578;-71
2023/12/11 13:15:54;;;;;;;9.02;2.28;;;;;;;;;;5064721;28;42408;-70
2023/12/11 13:18:22;;;;;;;9.35;2.35;;;;;;;;;;5072182;28;41153;-70
2023/12/11 13:20:50;;;;;;;11.40;2.58;;;;;;;;;;5062974;28;41696;-71
2023/12/11 13:23:18;;;;;;;14.70;2.78;;;;;;;;;;5064843;28;41412;-70
2023/12/11 13:25:46;;;;;;;13.93;2.33;;;;;;;;;;5064808;28;42310;-70
2023/12/11 13:28:16;;;;;;;12.13;2.35;;;;;;;;;;5064651;28;41017;-71
2023/12/11 13:30:44;;;;;;;10.20;2.30;;;;;;;;;;5064859;28;40388;-70
2023/12/11 13:33:12;;;;;;;10.07;1.90;;;;;;;;;;5065440;28;41493;-70
2023/12/11 13:35:41;;;;;;;11.52;2.15;;;;;;;;;;5064848;28;41768;-70
2023/12/11 13:38:09;;;;;;;9.27;2.20;;;;;;;;;;5065076;28;40352;-71
2023/12/11 13:40:37;;;;;;;9.43;2.17;;;;;;;;;;5065100;28;43345;-70
2023/12/11 13:43:05;;;;;;;12.10;2.28;;;;;;;;;;5065298;28;40923;-70
2023/12/11 13:45:34;;;;;;;11.88;2.70;;;;;;;;;;5060312;28;42249;-71
2023/12/11 13:48:03;;;;;;;10.15;1.98;;;;;;;;;;5059037;28;42349;-71
2023/12/11 13:50:31;;;;;;;12.95;2.63;;;;;;;;;;5065448;28;40093;-71
2023/12/11 13:52:59;;;;;;;11.15;2.30;;;;;;;;;;5060209;28;41998;-71
2023/12/11 13:55:27;;;;;;;12.40;2.38;;;;;;;;;;5066546;28;41904;-71
2023/12/11 13:57:55;;;;;;;10.68;1.92;;;;;;;;;;5063861;28;42028;-72
2023/12/11 14:00:23;;;;;;;8.20;1.80;;;;;;;;;;5066044;28;41180;-74
2023/12/11 14:02:52;;;;;;;8.55;1.77;;;;;;;;;;5055566;28;41827;-73
2023/12/11 14:05:31;;;;;;;9.63;2.22;;;;;;;;;;5058510;28;42518;-74
2023/12/11 14:07:59;;;;;;;10.20;2.42;;;;;;;;;;5056201;28;43230;-74
2023/12/11 14:10:27;;;;;;;9.45;2.28;;;;;;;;;;5056897;28;40501;-73
2023/12/11 14:12:55;;;;;;;8.25;2.17;;;;;;;;;;5059861;28;42573;-72
2023/12/11 14:15:23;;;;;;;5.90;1.65;;;;;;;;;;5042411;28;41904;-71
2023/12/11 14:17:52;;;;;;;8.18;2.10;;;;;;;;;;5035958;28;39552;-72
2023/12/11 14:20:20;;;;;;;7.18;1.77;;;;;;;;;;5060229;28;41497;-72
2023/12/11 14:22:48;;;;;;;8.57;1.42;;;;;;;;;;5056500;28;43031;-74
2023/12/11 14:25:16;;;;;;;8.63;1.80;;;;;;;;;;5059404;28;41198;-75
2023/12/11 14:27:44;;;;;;;5.85;1.75;;;;;;;;;;5061071;28;41878;-74
2023/12/11 14:30:13;;;;;;;11.07;2.17;;;;;;;;;;5059472;28;40250;-74
2023/12/11 14:32:40;;;;;;;9.32;1.80;;;;;;;;;;5060509;28;41375;-71
2023/12/11 14:35:10;;;;;;;10.90;2.00;;;;;;;;;;5058458;28;43060;-72
2023/12/11 14:37:39;;;;;;;8.70;1.90;;;;;;;;;;5057128;28;39773;-70
2023/12/11 14:40:09;;;;;;;5.72;1.17;;;;;;;;;;5058382;28;41212;-73
2023/12/11 14:42:37;;;;;;;10.48;2.80;;;;;;;;;;5061288;28;43111;-73
2023/12/11 14:45:08;;;;;;;9.43;2.05;;;;;;;;;;5058328;28;40178;-73